createdAt,value
2017-05-24T00:00:58.421Z,4.30
2017-05-24T00:03:27.365Z,4.82
2017-05-24T00:05:56.360Z,4.63
2017-05-24T00:08:25.286Z,4.75
2017-05-24T00:10:54.232Z,5.97
2017-05-24T00:13:23.203Z,4.72
2017-05-24T00:15:52.145Z,5.33
2017-05-24T00:18:21.066Z,4.72
2017-05-24T00:20:50.017Z,4.18
2017-05-24T00:23:18.942Z,4.28
2017-05-24T00:25:47.861Z,5.32
2017-05-24T00:28:16.811Z,4.07
2017-05-24T00:30:45.757Z,6.65
2017-05-24T00:33:14.683Z,3.75
2017-05-24T00:35:43.656Z,5.58
2017-05-24T00:38:12.587Z,3.93
2017-05-24T00:40:41.515Z,4.08
2017-05-24T00:43:10.473Z,4.80
2017-05-24T00:45:39.412Z,4.87
2017-05-24T00:48:08.357Z,4.28
2017-05-24T00:50:37.305Z,3.73
2017-05-24T00:53:06.246Z,3.77
2017-05-24T00:55:35.167Z,4.47
2017-05-24T00:58:04.140Z,4.22
2017-05-24T01:00:33.071Z,4.47
2017-05-24T01:03:02.012Z,4.30
2017-05-24T01:05:30.987Z,5.23
2017-05-24T01:07:59.921Z,4.80
2017-05-24T01:10:28.845Z,4.13
2017-05-24T01:12:57.802Z,4.15
2017-05-24T01:15:26.731Z,4.12
2017-05-24T01:17:55.680Z,4.57
2017-05-24T01:20:24.653Z,4.17
2017-05-24T01:22:53.598Z,3.42
2017-05-24T01:25:22.537Z,4.22
2017-05-24T01:27:51.505Z,4.47
2017-05-24T01:30:20.448Z,5.18
2017-05-24T01:32:49.393Z,5.27
2017-05-24T01:35:18.369Z,5.38
2017-05-24T01:37:47.316Z,4.98
2017-05-24T01:40:16.265Z,4.20
2017-05-24T01:42:45.243Z,4.52
2017-05-24T01:45:14.176Z,3.98
2017-05-24T01:47:43.130Z,4.22
2017-05-24T01:50:12.100Z,3.07
2017-05-24T01:52:41.026Z,4.43
2017-05-24T01:55:09.974Z,3.75
2017-05-24T01:57:38.922Z,4.43
2017-05-24T02:00:07.848Z,5.03
2017-05-24T02:02:36.788Z,4.07
2017-05-24T02:05:05.749Z,4.22
2017-05-24T02:07:34.675Z,4.33
2017-05-24T02:10:03.602Z,4.22
2017-05-24T02:12:32.576Z,4.55
2017-05-24T02:15:01.498Z,4.25
2017-05-24T02:17:30.445Z,4.77
2017-05-24T02:19:59.416Z,5.35
2017-05-24T02:22:28.337Z,4.48
2017-05-24T02:24:57.291Z,4.88
2017-05-24T02:27:26.269Z,3.95
2017-05-24T02:29:55.195Z,5.32
2017-05-24T02:32:24.124Z,4.70
2017-05-24T02:34:53.089Z,4.23
2017-05-24T02:37:22.035Z,4.20
2017-05-24T02:39:50.974Z,4.55
2017-05-24T02:42:19.923Z,4.02
2017-05-24T02:44:48.841Z,3.48
2017-05-24T02:47:17.764Z,4.33
2017-05-24T02:49:46.718Z,4.32
2017-05-24T02:52:15.657Z,4.63
2017-05-24T02:54:44.609Z,3.87
2017-05-24T02:57:13.582Z,4.95
2017-05-24T02:59:42.508Z,4.82
2017-05-24T03:02:11.425Z,5.52
2017-05-24T03:04:40.382Z,4.32
2017-05-24T03:07:09.305Z,5.05
2017-05-24T03:09:38.225Z,5.05
2017-05-24T03:12:07.178Z,4.73
2017-05-24T03:14:36.121Z,4.52
2017-05-24T03:17:05.041Z,4.65
2017-05-24T03:19:34.017Z,4.58
2017-05-24T03:22:02.960Z,3.15
2017-05-24T03:24:31.878Z,4.82
2017-05-24T03:27:00.956Z,5.18
2017-05-24T03:29:29.903Z,4.42
2017-05-24T03:31:58.850Z,4.32
2017-05-24T03:34:27.811Z,3.77
2017-05-24T03:36:56.752Z,4.18
2017-05-24T03:39:25.693Z,3.97
2017-05-24T03:41:54.652Z,4.55
2017-05-24T03:44:23.592Z,4.37
2017-05-24T03:46:53.353Z,4.73
2017-05-24T03:49:22.311Z,3.97
2017-05-24T03:51:51.230Z,4.12
2017-05-24T03:54:20.173Z,4.03
2017-05-24T03:56:49.231Z,4.42
2017-05-24T03:59:18.156Z,3.93
2017-05-24T04:01:47.082Z,4.35
2017-05-24T04:04:16.057Z,3.70
2017-05-24T04:06:45.004Z,4.12
2017-05-24T04:09:13.923Z,4.15
2017-05-24T04:11:42.904Z,4.08
2017-05-24T04:14:11.850Z,4.95
2017-05-24T04:16:40.779Z,4.18
2017-05-24T04:19:09.743Z,3.70
2017-05-24T04:21:38.685Z,4.82
2017-05-24T04:24:07.627Z,3.45
2017-05-24T04:26:36.574Z,3.17
2017-05-24T04:29:05.494Z,4.00
2017-05-24T04:31:34.436Z,4.13
2017-05-24T04:34:03.419Z,3.57
2017-05-24T04:36:32.342Z,4.67
2017-05-24T04:39:01.274Z,4.03
2017-05-24T04:41:30.229Z,4.20
2017-05-24T04:43:59.148Z,3.95
2017-05-24T04:46:28.089Z,3.80
2017-05-24T04:48:57.113Z,3.55
2017-05-24T04:51:26.035Z,3.50
2017-05-24T04:53:54.963Z,3.65
2017-05-24T04:56:23.931Z,3.83
2017-05-24T04:58:52.873Z,3.35
2017-05-24T05:01:21.816Z,3.77
2017-05-24T05:03:50.787Z,4.03
2017-05-24T05:06:19.728Z,3.58
2017-05-24T05:08:48.655Z,3.32
2017-05-24T05:11:17.992Z,3.43
2017-05-24T05:13:46.913Z,3.40
2017-05-24T05:16:15.855Z,3.58
2017-05-24T05:18:44.818Z,4.45
2017-05-24T05:21:13.753Z,6.45
2017-05-24T05:23:42.704Z,5.58
2017-05-24T05:26:11.668Z,4.45
2017-05-24T05:28:40.621Z,2.77
2017-05-24T05:31:09.542Z,3.33
2017-05-24T05:33:38.512Z,4.15
2017-05-24T05:36:07.453Z,4.13
2017-05-24T05:38:36.379Z,3.88
2017-05-24T05:41:05.365Z,5.33
2017-05-24T05:43:34.289Z,3.77
2017-05-24T05:46:03.206Z,4.37
2017-05-24T05:48:32.156Z,5.03
2017-05-24T05:51:01.078Z,3.27
2017-05-24T05:53:30.001Z,3.27
2017-05-24T05:55:58.974Z,3.58
2017-05-24T05:58:27.917Z,4.10
2017-05-24T06:00:56.900Z,2.60
2017-05-24T06:03:25.869Z,2.72
2017-05-24T06:05:54.791Z,3.18
2017-05-24T06:08:23.710Z,3.30
2017-05-24T06:10:52.682Z,3.18
2017-05-24T06:13:21.609Z,3.27
2017-05-24T06:15:50.561Z,3.32
2017-05-24T06:18:19.553Z,4.00
2017-05-24T06:20:48.493Z,2.90
2017-05-24T06:23:17.423Z,3.32
2017-05-24T06:25:46.412Z,3.45
2017-05-24T06:28:15.773Z,2.95
2017-05-24T06:30:44.697Z,3.53
2017-05-24T06:33:13.668Z,2.37
2017-05-24T06:35:42.616Z,3.48
2017-05-24T06:38:11.549Z,2.90
2017-05-24T06:40:40.521Z,4.45
2017-05-24T06:43:09.461Z,3.78
2017-05-24T06:45:38.404Z,2.88
2017-05-24T06:48:07.381Z,3.62
2017-05-24T06:50:36.321Z,2.90
2017-05-24T06:53:05.271Z,3.43
2017-05-24T06:55:34.237Z,3.03
2017-05-24T06:58:03.173Z,3.18
2017-05-24T07:00:32.099Z,2.90
2017-05-24T07:03:01.066Z,3.10
2017-05-24T07:05:30.006Z,3.43
2017-05-24T07:07:58.930Z,4.37
2017-05-24T07:10:27.893Z,2.60
2017-05-24T07:12:56.814Z,6.82
2017-05-24T07:15:25.738Z,2.65
2017-05-24T07:17:54.706Z,3.10
2017-05-24T07:20:23.631Z,2.22
2017-05-24T07:22:52.577Z,2.27
2017-05-24T07:25:21.549Z,2.40
2017-05-24T07:27:50.497Z,3.23
2017-05-24T07:30:19.439Z,2.83
2017-05-24T07:32:48.394Z,3.65
2017-05-24T07:35:17.334Z,2.87
2017-05-24T07:37:46.358Z,2.20
2017-05-24T07:40:15.321Z,3.77
2017-05-24T07:42:44.265Z,3.05
2017-05-24T07:45:13.194Z,3.43
2017-05-24T07:47:42.141Z,2.70
2017-05-24T07:50:11.063Z,2.10
2017-05-24T07:52:40.002Z,2.88
2017-05-24T07:55:08.949Z,2.42
2017-05-24T07:57:37.873Z,3.60
2017-05-24T08:00:06.802Z,2.80
2017-05-24T08:02:35.758Z,2.35
2017-05-24T08:05:04.711Z,2.75
2017-05-24T08:07:33.630Z,2.58
2017-05-24T08:10:02.602Z,2.37
2017-05-24T08:12:31.540Z,2.63
2017-05-24T08:15:00.461Z,2.25
2017-05-24T08:17:29.430Z,2.45
2017-05-24T08:19:58.354Z,2.40
2017-05-24T08:22:27.291Z,2.42
2017-05-24T08:24:56.261Z,2.53
2017-05-24T08:27:25.209Z,2.80
2017-05-24T08:29:54.138Z,2.52
2017-05-24T08:32:23.098Z,2.22
2017-05-24T08:34:52.023Z,2.22
2017-05-24T08:37:20.952Z,2.82
2017-05-24T08:39:49.913Z,2.68
2017-05-24T08:42:18.846Z,2.62
2017-05-24T08:44:47.787Z,2.75
2017-05-24T08:47:16.757Z,3.48
2017-05-24T08:49:45.688Z,2.50
2017-05-24T08:52:14.615Z,3.20
2017-05-24T08:54:43.577Z,2.82
2017-05-24T08:57:12.498Z,2.00
2017-05-24T08:59:41.442Z,3.00
2017-05-24T09:02:10.421Z,2.78
2017-05-24T09:04:39.346Z,2.45
2017-05-24T09:07:08.369Z,2.20
2017-05-24T09:09:37.326Z,2.17
2017-05-24T09:12:06.268Z,2.62
2017-05-24T09:14:35.204Z,2.57
2017-05-24T09:17:04.181Z,2.57
2017-05-24T09:19:33.124Z,2.08
2017-05-24T09:22:02.076Z,2.68
2017-05-24T09:24:31.034Z,2.62
2017-05-24T09:26:59.973Z,2.77
2017-05-24T09:29:28.921Z,2.32
2017-05-24T09:31:57.900Z,2.60
2017-05-24T09:34:26.827Z,2.65
2017-05-24T09:36:55.773Z,2.57
2017-05-24T09:39:24.746Z,2.58
2017-05-24T09:41:53.693Z,2.93
2017-05-24T09:44:22.626Z,3.10
2017-05-24T09:46:51.600Z,2.72
2017-05-24T09:49:20.543Z,3.57
2017-05-24T09:51:49.489Z,3.00
2017-05-24T09:54:18.442Z,3.68
2017-05-24T09:56:47.367Z,2.97
2017-05-24T09:59:16.291Z,2.72
2017-05-24T10:01:45.265Z,2.48
2017-05-24T10:04:14.186Z,3.30
2017-05-24T10:06:43.124Z,3.62
2017-05-24T10:09:12.093Z,4.17
2017-05-24T10:11:41.019Z,3.43
2017-05-24T10:14:09.971Z,2.40
2017-05-24T10:16:38.927Z,2.92
2017-05-24T10:19:07.872Z,2.63
2017-05-24T10:21:36.815Z,3.05
2017-05-24T10:24:05.788Z,3.55
2017-05-24T10:26:34.728Z,3.70
2017-05-24T10:29:03.672Z,2.88
2017-05-24T10:31:32.623Z,2.40
2017-05-24T10:34:01.560Z,2.66
2017-05-24T10:36:30.513Z,3.16
2017-05-24T10:38:59.476Z,2.96
2017-05-24T10:41:34.017Z,4.13
2017-05-24T10:44:02.982Z,4.03
2017-05-24T10:46:31.919Z,13.72
2017-05-24T10:49:00.871Z,9.67
2017-05-24T10:51:29.831Z,8.85
2017-05-24T10:53:58.758Z,2.07
2017-05-24T10:56:27.700Z,2.17
2017-05-24T10:58:56.647Z,2.50
2017-05-24T11:01:25.592Z,2.43
2017-05-24T11:03:54.514Z,2.45
2017-05-24T11:06:23.458Z,2.88
2017-05-24T11:08:52.397Z,1.97
2017-05-24T11:11:21.356Z,2.48
2017-05-24T11:13:50.302Z,2.43
2017-05-24T11:16:19.231Z,1.92
2017-05-24T11:18:48.206Z,2.38
2017-05-24T11:21:17.162Z,1.80
2017-05-24T11:23:46.105Z,1.88
2017-05-24T11:26:15.031Z,1.98
2017-05-24T11:28:44.000Z,1.98
2017-05-24T11:31:12.945Z,2.30
2017-05-24T11:33:41.863Z,2.55
2017-05-24T11:36:10.847Z,2.38
2017-05-24T11:38:39.785Z,2.10
2017-05-24T11:41:08.727Z,2.23
2017-05-24T11:43:37.675Z,2.28
2017-05-24T11:46:06.599Z,2.22
2017-05-24T11:48:35.963Z,2.05
2017-05-24T11:51:04.914Z,2.58
2017-05-24T11:53:33.859Z,2.38
2017-05-24T11:56:02.796Z,3.08
2017-05-24T11:58:31.770Z,2.45
2017-05-24T12:01:00.715Z,2.20
2017-05-24T12:03:29.643Z,2.15
2017-05-24T12:05:58.630Z,2.20
2017-05-24T12:08:27.553Z,2.32
2017-05-24T12:10:56.483Z,1.77
2017-05-24T12:13:25.455Z,2.70
2017-05-24T12:15:54.402Z,1.78
2017-05-24T12:18:23.346Z,2.03
2017-05-24T12:20:52.298Z,2.05
2017-05-24T12:23:21.214Z,1.75
2017-05-24T12:25:50.132Z,2.22
2017-05-24T12:28:19.086Z,2.28
2017-05-24T12:30:48.033Z,2.07
2017-05-24T12:33:16.981Z,2.80
2017-05-24T12:35:45.932Z,2.20
2017-05-24T12:38:14.869Z,1.68
2017-05-24T12:40:43.812Z,1.98
2017-05-24T12:43:12.788Z,1.90
2017-05-24T12:45:41.733Z,1.88
2017-05-24T12:48:10.661Z,2.38
2017-05-24T12:50:39.746Z,2.22
2017-05-24T12:53:08.690Z,1.93
2017-05-24T12:55:37.610Z,2.40
2017-05-24T12:58:06.559Z,2.78
2017-05-24T13:00:35.491Z,2.35
2017-05-24T13:03:04.412Z,2.43
2017-05-24T13:05:33.370Z,2.65
2017-05-24T13:08:02.315Z,2.75
2017-05-24T13:10:31.256Z,1.82
2017-05-24T13:13:00.234Z,2.30
2017-05-24T13:15:29.166Z,2.82
2017-05-24T13:17:58.109Z,2.87
2017-05-24T13:20:27.084Z,2.30
2017-05-24T13:22:56.010Z,2.22
2017-05-24T13:25:24.930Z,2.43
2017-05-24T13:27:53.898Z,2.50
2017-05-24T13:30:22.843Z,3.03
2017-05-24T13:32:51.772Z,2.27
2017-05-24T13:35:20.726Z,3.17
2017-05-24T13:37:49.664Z,2.12
2017-05-24T13:40:18.611Z,2.42
2017-05-24T13:42:47.565Z,2.75
2017-05-24T13:45:16.512Z,2.02
2017-05-24T13:47:45.461Z,2.20
2017-05-24T13:50:14.418Z,2.57
2017-05-24T13:52:43.344Z,3.12
2017-05-24T13:55:12.270Z,2.72
2017-05-24T13:57:41.264Z,2.67
2017-05-24T14:00:11.554Z,2.30
2017-05-24T14:02:40.510Z,2.28
2017-05-24T14:05:09.628Z,2.48
2017-05-24T14:07:38.588Z,1.98
2017-05-24T14:10:07.529Z,2.55
2017-05-24T14:12:36.508Z,2.40
2017-05-24T14:15:05.438Z,2.42
2017-05-24T14:17:34.358Z,3.17
2017-05-24T14:20:03.317Z,2.65
2017-05-24T14:22:32.289Z,2.83
2017-05-24T14:25:01.234Z,2.85
2017-05-24T14:27:30.198Z,2.95
2017-05-24T14:29:59.142Z,2.62
2017-05-24T14:32:28.088Z,2.95
2017-05-24T14:34:57.046Z,2.52
2017-05-24T14:37:25.978Z,3.00
2017-05-24T14:39:54.931Z,2.67
2017-05-24T14:42:23.887Z,3.00
2017-05-24T14:44:52.811Z,2.78
2017-05-24T14:47:21.729Z,2.53
2017-05-24T14:49:50.702Z,3.00
2017-05-24T14:52:19.646Z,2.47
2017-05-24T14:54:48.597Z,3.13
2017-05-24T14:57:17.571Z,2.57
2017-05-24T14:59:46.497Z,2.25
2017-05-24T15:02:15.425Z,2.22
2017-05-24T15:04:44.383Z,2.53
2017-05-24T15:07:13.315Z,2.88
2017-05-24T15:09:42.241Z,2.63
2017-05-24T15:12:11.213Z,2.50
2017-05-24T15:14:40.157Z,2.30
2017-05-24T15:17:09.078Z,2.70
2017-05-24T15:19:38.044Z,2.40
2017-05-24T15:22:06.963Z,3.37
2017-05-24T15:24:35.919Z,3.42
2017-05-24T15:27:04.875Z,2.83
2017-05-24T15:29:33.820Z,2.88
2017-05-24T15:32:02.743Z,3.22
2017-05-24T15:34:31.708Z,2.78
2017-05-24T15:37:00.649Z,2.42
2017-05-24T15:39:29.567Z,3.17
2017-05-24T15:41:58.585Z,2.93
2017-05-24T15:44:27.527Z,2.82
2017-05-24T15:46:56.446Z,3.05
2017-05-24T15:49:25.417Z,2.68
2017-05-24T15:51:54.335Z,2.60
2017-05-24T15:54:23.276Z,2.33
2017-05-24T15:56:52.239Z,2.40
2017-05-24T15:59:21.176Z,2.75
2017-05-24T16:01:50.126Z,2.52
2017-05-24T16:04:19.102Z,2.83
2017-05-24T16:06:48.029Z,2.05
2017-05-24T16:09:16.969Z,2.42
2017-05-24T16:11:45.924Z,4.90
2017-05-24T16:14:14.863Z,2.62
2017-05-24T16:16:43.785Z,3.67
2017-05-24T16:19:12.739Z,3.98
2017-05-24T16:21:41.682Z,2.50
2017-05-24T16:24:10.603Z,2.35
2017-05-24T16:26:39.568Z,2.98
2017-05-24T16:29:08.512Z,3.30
2017-05-24T16:31:37.445Z,2.83
2017-05-24T16:34:06.399Z,2.40
2017-05-24T16:36:35.349Z,3.80
2017-05-24T16:39:04.275Z,3.55
2017-05-24T16:41:33.255Z,2.75
2017-05-24T16:44:02.198Z,3.38
2017-05-24T16:46:31.143Z,2.62
2017-05-24T16:49:00.095Z,2.53
2017-05-24T16:51:29.099Z,2.70
2017-05-24T16:53:58.013Z,2.95
2017-05-24T16:56:26.989Z,2.63
2017-05-24T16:58:55.949Z,3.05
2017-05-24T17:01:24.890Z,2.67
2017-05-24T17:03:53.860Z,2.53
2017-05-24T17:06:22.805Z,3.08
2017-05-24T17:08:51.750Z,2.72
2017-05-24T17:11:20.729Z,2.60
2017-05-24T17:13:49.654Z,3.55
2017-05-24T17:16:18.574Z,3.32
2017-05-24T17:18:47.568Z,2.72
2017-05-24T17:21:16.517Z,3.30
2017-05-24T17:23:45.441Z,2.98
2017-05-24T17:26:14.394Z,3.43
2017-05-24T17:28:43.333Z,3.23
2017-05-24T17:31:12.253Z,2.72
2017-05-24T17:33:41.202Z,3.10
2017-05-24T17:36:10.144Z,2.73
2017-05-24T17:38:39.067Z,2.90
2017-05-24T17:41:08.021Z,3.13
2017-05-24T17:43:36.955Z,2.97
2017-05-24T17:46:05.897Z,2.63
2017-05-24T17:48:34.874Z,3.05
2017-05-24T17:51:03.793Z,2.68
2017-05-24T17:53:32.741Z,2.32
2017-05-24T17:56:01.708Z,2.92
2017-05-24T17:58:30.622Z,2.67
2017-05-24T18:00:59.546Z,3.68
2017-05-24T18:03:28.517Z,2.38
2017-05-24T18:05:57.444Z,3.05
2017-05-24T18:08:26.364Z,3.47
2017-05-24T18:10:55.325Z,3.07
2017-05-24T18:13:24.422Z,3.48
2017-05-24T18:15:53.341Z,3.32
2017-05-24T18:18:22.333Z,3.52
2017-05-24T18:20:51.316Z,3.68
2017-05-24T18:23:20.323Z,4.28
2017-05-24T18:25:49.647Z,3.87
2017-05-24T18:28:18.567Z,7.12
2017-05-24T18:30:47.517Z,4.90
2017-05-24T18:33:16.474Z,4.28
2017-05-24T18:35:45.416Z,3.50
2017-05-24T18:38:14.353Z,4.25
2017-05-24T18:40:43.309Z,6.82
2017-05-24T18:43:12.258Z,3.68
2017-05-24T18:45:41.181Z,4.30
2017-05-24T18:48:10.148Z,3.62
2017-05-24T18:50:39.070Z,3.22
2017-05-24T18:53:08.011Z,3.95
2017-05-24T18:55:36.965Z,4.02
2017-05-24T18:58:05.898Z,4.08
2017-05-24T19:00:34.826Z,3.55
2017-05-24T19:03:03.806Z,3.93
2017-05-24T19:05:32.763Z,5.32
2017-05-24T19:08:01.690Z,6.45
2017-05-24T19:10:30.641Z,3.75
2017-05-24T19:12:59.571Z,5.22
2017-05-24T19:15:28.514Z,4.87
2017-05-24T19:17:57.474Z,6.85
2017-05-24T19:20:26.409Z,6.07
2017-05-24T19:22:55.331Z,6.50
2017-05-24T19:25:24.310Z,5.68
2017-05-24T19:27:53.239Z,5.32
2017-05-24T19:30:22.180Z,5.60
2017-05-24T19:32:51.149Z,5.57
2017-05-24T19:35:20.100Z,5.30
2017-05-24T19:37:49.045Z,5.82
2017-05-24T19:40:18.004Z,4.72
2017-05-24T19:42:46.922Z,5.43
2017-05-24T19:45:15.842Z,5.45
2017-05-24T19:47:44.818Z,7.55
2017-05-24T19:50:13.733Z,5.75
2017-05-24T19:52:42.663Z,6.35
2017-05-24T19:55:11.633Z,6.88
2017-05-24T19:57:40.562Z,7.68
2017-05-24T20:00:09.500Z,7.35
2017-05-24T20:02:38.466Z,7.18
2017-05-24T20:05:07.414Z,8.27
2017-05-24T20:07:36.366Z,7.30
2017-05-24T20:10:05.326Z,7.27
2017-05-24T20:12:34.253Z,7.13
2017-05-24T20:15:03.193Z,7.02
2017-05-24T20:17:32.154Z,7.67
2017-05-24T20:20:01.080Z,7.12
2017-05-24T20:22:30.034Z,8.12
2017-05-24T20:24:58.991Z,9.42
2017-05-24T20:27:27.939Z,6.83
2017-05-24T20:29:56.876Z,7.50
2017-05-24T20:32:25.874Z,8.25
2017-05-24T20:34:54.797Z,8.15
2017-05-24T20:37:23.735Z,10.75
2017-05-24T20:39:52.699Z,10.12
2017-05-24T20:42:21.662Z,6.95
2017-05-24T20:44:50.625Z,8.55
2017-05-24T20:47:19.605Z,9.32
2017-05-24T20:49:48.533Z,8.17
2017-05-24T20:52:17.471Z,11.30
2017-05-24T20:54:46.433Z,12.63
2017-05-24T20:57:15.359Z,10.65
2017-05-24T20:59:44.305Z,11.62
2017-05-24T21:02:13.275Z,9.92
2017-05-24T21:04:42.285Z,8.88
2017-05-24T21:07:11.227Z,10.85
2017-05-24T21:09:40.199Z,9.97
2017-05-24T21:12:09.132Z,7.97
2017-05-24T21:14:38.064Z,7.63
2017-05-24T21:17:07.027Z,9.83
2017-05-24T21:19:35.965Z,9.48
2017-05-24T21:22:04.910Z,9.80
2017-05-24T21:24:33.877Z,11.10
2017-05-24T21:27:02.821Z,8.63
2017-05-24T21:29:31.742Z,8.28
2017-05-24T21:32:00.695Z,8.57
2017-05-24T21:34:29.639Z,8.90
2017-05-24T21:36:58.562Z,8.32
2017-05-24T21:39:27.542Z,8.95
2017-05-24T21:41:56.501Z,10.17
2017-05-24T21:44:25.427Z,9.20
2017-05-24T21:46:54.386Z,9.40
2017-05-24T21:49:23.313Z,9.90
2017-05-24T21:51:52.329Z,10.88
2017-05-24T21:54:21.393Z,9.67
2017-05-24T21:56:50.318Z,9.95
2017-05-24T21:59:19.262Z,9.77
2017-05-24T22:01:48.255Z,10.68
2017-05-24T22:04:17.185Z,10.60
2017-05-24T22:06:46.110Z,10.35
2017-05-24T22:09:16.107Z,10.20
2017-05-24T22:11:45.051Z,9.98
2017-05-24T22:14:13.998Z,10.88
2017-05-24T22:16:42.977Z,10.48
2017-05-24T22:19:11.921Z,10.68
2017-05-24T22:21:40.842Z,13.07
2017-05-24T22:24:09.794Z,11.35
2017-05-24T22:26:38.734Z,11.75
2017-05-24T22:29:08.512Z,12.53
2017-05-24T22:31:37.475Z,14.25
2017-05-24T22:34:06.408Z,12.83
2017-05-24T22:36:35.441Z,12.82
2017-05-24T22:39:04.449Z,12.28
2017-05-24T22:41:33.654Z,13.03
2017-05-24T22:44:02.595Z,14.25
2017-05-24T22:46:31.536Z,14.67
2017-05-24T22:49:00.580Z,12.80
2017-05-24T22:51:29.533Z,16.12
2017-05-24T22:53:58.485Z,13.08
2017-05-24T22:56:27.447Z,15.58
2017-05-24T22:58:56.380Z,15.45
2017-05-24T23:01:25.334Z,17.48
2017-05-24T23:03:54.262Z,18.87
2017-05-24T23:06:23.213Z,20.97
2017-05-24T23:08:52.162Z,16.82
2017-05-24T23:11:21.111Z,20.08
2017-05-24T23:13:50.074Z,14.47
2017-05-24T23:16:19.027Z,14.73
2017-05-24T23:18:47.958Z,15.10
2017-05-24T23:21:16.920Z,14.43
2017-05-24T23:23:45.850Z,13.72
2017-05-24T23:26:14.830Z,13.88
2017-05-24T23:28:43.764Z,14.68
2017-05-24T23:31:12.698Z,15.93
2017-05-24T23:33:41.673Z,14.18
2017-05-24T23:36:10.612Z,14.27
2017-05-24T23:38:39.590Z,14.00
2017-05-24T23:41:08.523Z,15.43
2017-05-24T23:43:37.463Z,16.55
2017-05-24T23:46:06.428Z,14.83
2017-05-24T23:48:35.359Z,14.55
2017-05-24T23:51:04.310Z,15.80
2017-05-24T23:53:33.239Z,14.92
2017-05-24T23:56:02.188Z,16.02
2017-05-24T23:58:31.136Z,15.25
